Time;durP1;ratioP1;P1;durP2;ratioP2;P2;SDS_P1;SDS_P2;PMS_P1;PMS_P2;Temp;Humidity;BMP_temperature;BMP_pressure;BME280_temperature;BME280_humidity;BME280_pressure;Samples;Min_cycle;Max_cycle;Signal;HPM_P1;HPM_P2
2023/10/14 00:01:25;;;;;;;;;;;;;;;;;;;;;
2023/10/14 00:03:51;;;;;;;15.93;6.57;;;;;;;12.38;64.49;92667.97;2072276;69;20221;-75
2023/10/14 00:06:18;;;;;;;14.15;6.25;;;;;;;12.49;64.21;92666.41;2072867;69;20156;-74
2023/10/14 00:09:11;;;;;;;12.27;6.13;;;;;;;12.57;63.63;92659.09;2066545;69;20148;-74
2023/10/14 00:11:35;;;;;;;14.52;5.85;;;;;;;12.79;62.72;92662.38;2071479;69;20152;-75
2023/10/14 00:14:15;;;;;;;13.30;5.88;;;;;;;12.77;62.70;92641.75;2068726;69;20602;-75
2023/10/14 00:16:51;;;;;;;11.35;5.80;;;;;;;12.79;61.52;92642.59;2072137;69;20575;-76
2023/10/14 00:19:21;;;;;;;16.17;5.72;;;;;;;12.79;62.99;92656.00;2072430;69;20198;-75
2023/10/14 00:21:49;;;;;;;12.93;5.80;;;;;;;12.77;62.40;92645.31;2069244;69;20282;-75
2023/10/14 00:24:26;;;;;;;10.98;5.72;;;;;;;12.76;62.60;92648.75;2072640;69;20152;-74
2023/10/14 00:26:57;;;;;;;15.65;6.10;;;;;;;12.71;62.83;92645.00;2072599;69;20179;-75
2023/10/14 00:29:24;;;;;;;11.82;5.50;;;;;;;12.78;63.38;92649.59;2072598;69;20227;-77
2023/10/14 00:31:52;;;;;;;13.55;5.40;;;;;;;12.66;62.57;92648.97;2072538;69;20566;-76
2023/10/14 00:34:22;;;;;;;12.20;5.93;;;;;;;12.51;63.08;92638.28;2069210;69;20623;-76
2023/10/14 00:36:49;;;;;;;14.57;6.25;;;;;;;12.61;63.43;92641.66;2069230;69;20147;-75
2023/10/14 00:39:23;;;;;;;13.07;5.63;;;;;;;12.64;63.24;92641.09;2069108;69;20231;-76
2023/10/14 00:41:50;;;;;;;11.20;5.68;;;;;;;12.64;63.10;92638.28;2069184;69;20144;-76
2023/10/14 00:44:17;;;;;;;14.95;5.95;;;;;;;12.54;63.32;92632.13;2072393;69;20145;-74
2023/10/14 00:46:53;;;;;;;14.52;5.85;;;;;;;12.60;63.31;92626.03;2072685;69;20171;-75
2023/10/14 00:49:42;;;;;;;11.68;5.75;;;;;;;12.65;62.57;92616.44;2069153;69;20140;-75
2023/10/14 00:52:15;;;;;;;12.90;5.88;;;;;;;12.63;62.74;92616.31;2072366;69;20140;-75
2023/10/14 00:57:20;;;;;;;12.30;5.38;;;;;;;12.71;61.71;92611.09;2072531;69;20148;-76
2023/10/14 00:59:53;;;;;;;12.65;5.85;;;;;;;12.74;62.54;92612.69;2066383;69;20545;-75
2023/10/14 01:02:31;;;;;;;11.55;5.70;;;;;;;12.55;63.08;92613.81;2066535;69;20213;-74
2023/10/14 01:05:10;;;;;;;12.73;6.13;;;;;;;12.72;62.36;92609.75;2069168;69;20164;-74
2023/10/14 01:07:38;;;;;;;14.95;5.65;;;;;;;12.75;62.68;92616.97;2072552;69;20148;-75
2023/10/14 01:10:05;;;;;;;11.43;5.90;;;;;;;12.67;63.16;92600.31;2072288;69;20518;-75
2023/10/14 01:12:45;;;;;;;13.55;5.50;;;;;;;12.85;62.38;92608.28;2068558;69;20149;-75
2023/10/14 01:15:20;;;;;;;10.80;5.75;;;;;;;12.82;63.09;92606.69;2069057;69;20284;-75
2023/10/14 01:17:48;;;;;;;13.10;5.97;;;;;;;12.49;64.19;92607.13;2068625;69;20630;-75
2023/10/14 01:22:43;;;;;;;13.15;6.00;;;;;;;12.65;62.54;92605.16;2069214;69;20140;-77
2023/10/14 01:25:14;;;;;;;12.00;5.78;;;;;;;12.68;62.60;92603.88;2068645;69;20606;-76
2023/10/14 01:27:43;;;;;;;14.15;5.93;;;;;;;12.69;63.27;92591.22;2069105;69;20285;-77
2023/10/14 01:30:20;;;;;;;13.13;6.25;;;;;;;12.68;63.61;92596.13;2065588;69;20132;-75
2023/10/14 01:32:49;;;;;;;12.10;5.60;;;;;;;12.70;62.72;92578.56;2068532;69;20160;-77
2023/10/14 01:35:31;;;;;;;12.15;6.15;;;;;;;12.69;63.12;92586.31;2068558;69;20622;-74
2023/10/14 01:37:59;;;;;;;10.98;5.63;;;;;;;12.75;62.81;92588.00;2069088;69;20145;-74
2023/10/14 01:40:36;;;;;;;14.80;5.85;;;;;;;12.77;62.66;92580.34;2068392;69;20512;-75
2023/10/14 01:43:08;;;;;;;14.18;5.72;;;;;;;12.78;62.11;92587.44;2065820;69;20127;-75
2023/10/14 01:45:40;;;;;;;10.95;5.65;;;;;;;12.78;63.29;92586.72;2068259;69;20560;-74
2023/10/14 01:50:44;;;;;;;12.85;6.03;;;;;;;12.74;62.88;92575.97;2068424;69;20603;-74
2023/10/14 01:53:18;;;;;;;11.50;6.00;;;;;;;12.54;63.75;92580.56;2068558;69;20136;-73
2023/10/14 01:55:47;;;;;;;12.23;6.05;;;;;;;12.48;64.44;92575.34;2069206;69;20148;-74
2023/10/14 01:58:22;;;;;;;11.40;6.07;;;;;;;12.38;64.98;92575.53;2062762;69;20503;-74
2023/10/14 02:00:58;;;;;;;13.13;6.15;;;;;;;12.49;64.24;92553.47;2068540;69;20742;-73
2023/10/14 02:03:33;;;;;;;12.02;5.97;;;;;;;12.37;64.69;92545.84;2065887;69;20227;-74
2023/10/14 02:06:10;;;;;;;14.82;6.30;;;;;;;12.54;63.46;92544.59;2068722;69;20144;-74
2023/10/14 02:08:39;;;;;;;12.18;6.10;;;;;;;12.60;63.83;92549.81;2068401;69;20172;-75
2023/10/14 02:11:05;;;;;;;14.27;6.15;;;;;;;12.52;64.30;92552.22;2068924;69;20239;-77
2023/10/14 02:13:36;;;;;;;10.52;6.10;;;;;;;12.24;65.32;92551.50;2068655;69;20244;-75
2023/10/14 02:16:08;;;;;;;12.25;6.38;;;;;;;12.17;64.31;92528.59;2069041;69;20136;-74
2023/10/14 02:18:36;;;;;;;10.77;6.40;;;;;;;12.46;63.78;92556.22;2068690;69;20215;-74
2023/10/14 02:21:08;;;;;;;13.40;6.38;;;;;;;12.50;63.84;92555.66;2068991;69;20155;-75
2023/10/14 02:23:45;;;;;;;11.55;6.05;;;;;;;12.33;63.93;92562.59;2072319;69;20152;-73
2023/10/14 02:26:26;;;;;;;16.15;6.50;;;;;;;12.33;63.98;92564.69;2066139;69;20160;-75
2023/10/14 02:28:53;;;;;;;12.15;5.55;;;;;;;12.36;63.82;92566.22;2068925;69;20614;-75
2023/10/14 02:31:29;;;;;;;11.68;6.47;;;;;;;12.36;63.86;92561.31;2068947;69;20590;-75
2023/10/14 02:34:05;;;;;;;10.27;6.32;;;;;;;12.38;64.05;92564.25;2072437;69;20240;-76
2023/10/14 02:36:50;;;;;;;10.68;5.88;;;;;;;12.38;64.01;92564.25;2072231;69;20160;-76
2023/10/14 02:39:35;;;;;;;;;;;;;;;12.45;63.51;92559.63;2064641;69;20322;-75
2023/10/14 02:42:14;;;;;;;14.23;6.32;;;;;;;12.35;63.66;92562.69;2064649;69;20045;-74
2023/10/14 02:44:52;;;;;;;13.43;5.88;;;;;;;12.34;63.47;92561.22;2059005;69;20659;-73
2023/10/14 02:47:21;;;;;;;12.15;5.60;;;;;;;12.40;63.39;92557.97;2061897;69;20610;-74
2023/10/14 02:49:53;;;;;;;9.77;5.43;;;;;;;12.32;63.65;92569.56;2059115;69;20587;-74
2023/10/14 02:52:29;;;;;;;9.98;5.65;;;;;;;12.38;63.75;92557.88;2061864;69;20622;-74
2023/10/14 02:54:55;;;;;;;13.07;5.80;;;;;;;12.36;63.74;92550.03;2062027;69;20137;-75
2023/10/14 02:57:28;;;;;;;12.52;6.05;;;;;;;12.35;63.43;92551.38;2059064;69;20623;-73
2023/10/14 02:59:57;;;;;;;11.68;5.72;;;;;;;12.36;63.59;92543.66;2062053;69;20161;-74
2023/10/14 03:02:25;;;;;;;12.65;6.10;;;;;;;12.46;63.19;92538.50;2062022;69;20140;-75
2023/10/14 03:07:50;;;;;;;14.48;6.00;;;;;;;12.59;62.10;92522.94;2061877;69;20144;-75
2023/10/14 03:10:34;;;;;;;9.63;5.53;;;;;;;12.90;59.89;92523.09;2064965;69;20225;-75
2023/10/14 03:13:00;;;;;;;12.60;5.45;;;;;;;12.84;62.55;92534.09;2068266;69;20174;-76
2023/10/14 03:15:30;;;;;;;10.73;5.32;;;;;;;12.85;59.75;92521.44;2068406;69;20371;-75
2023/10/14 03:17:58;;;;;;;13.07;5.90;;;;;;;12.72;61.64;92544.78;2068855;69;20140;-74
2023/10/14 03:20:35;;;;;;;13.82;6.55;;;;;;;12.76;61.84;92553.47;2068587;69;20145;-73
2023/10/14 03:23:18;;;;;;;11.70;6.30;;;;;;;12.59;62.57;92549.06;2068081;69;20642;-73
2023/10/14 03:25:45;;;;;;;;;;;;;;;12.71;62.37;92555.34;2068261;69;20611;-73
2023/10/14 03:28:14;;;;;;;13.80;6.43;;;;;;;12.63;62.33;92532.34;2068735;69;20045;-73
2023/10/14 03:30:45;;;;;;;11.15;5.97;;;;;;;12.69;62.16;92529.06;2068134;69;20210;-74
2023/10/14 03:33:20;;;;;;;12.20;5.93;;;;;;;12.65;62.73;92531.72;2068951;69;20145;-74
2023/10/14 03:36:05;;;;;;;10.43;5.68;;;;;;;12.89;61.30;92518.81;2068912;69;20159;-73
2023/10/14 03:41:03;;;;;;;11.25;6.63;;;;;;;12.76;62.01;92513.91;2068793;69;20132;-74
2023/10/14 03:46:34;;;;;;;12.38;5.60;;;;;;;12.83;61.47;92500.81;2066788;69;20221;-72
2023/10/14 03:49:11;;;;;;;10.50;5.50;;;;;;;12.87;60.66;92510.22;2068448;69;20136;-74
2023/10/14 03:51:40;;;;;;;11.55;5.50;;;;;;;12.78;60.24;92477.28;2068934;69;20614;-74
2023/10/14 03:54:12;;;;;;;11.10;5.40;;;;;;;13.01;60.81;92520.75;2068891;69;20621;-73
2023/10/14 03:56:44;;;;;;;14.77;5.75;;;;;;;12.75;62.31;92520.94;2068839;69;20223;-74
2023/10/14 03:59:12;;;;;;;13.32;5.72;;;;;;;12.91;62.19;92521.00;2069491;69;20591;-74
2023/10/14 04:04:16;;;;;;;8.75;5.28;;;;;;;12.99;61.53;92518.56;2068505;69;20206;-74
2023/10/14 04:06:51;;;;;;;13.32;6.57;;;;;;;12.83;62.79;92521.34;2069496;69;20132;-73
2023/10/14 04:09:23;;;;;;;13.95;6.00;;;;;;;12.94;61.65;92514.09;2069149;69;20260;-73
2023/10/14 04:11:55;;;;;;;14.88;5.85;;;;;;;12.97;61.92;92507.91;2070523;69;20176;-74
2023/10/14 04:14:27;;;;;;;10.65;5.15;;;;;;;13.17;59.59;92508.16;2072153;69;20136;-74
2023/10/14 04:17:10;;;;;;;12.40;5.93;;;;;;;13.20;59.08;92497.69;2072430;69;20266;-74
2023/10/14 04:19:58;;;;;;;13.40;7.00;;;;;;;12.99;59.86;92493.13;2072534;69;20156;-73
2023/10/14 04:30:21;;;;;;;11.50;5.82;;;;;;;13.22;60.82;92501.34;2072371;69;20197;-73
2023/10/14 04:33:35;;;;;;;10.13;5.60;;;;;;;13.23;60.89;92493.59;2072701;69;20280;-73
2023/10/14 04:35:36;;;;;;;9.93;4.90;;;;;;;13.41;59.70;92497.28;2071016;69;20168;-73
2023/10/14 04:38:12;;;;;;;10.35;4.82;;;;;;;13.41;59.37;92488.81;2066437;69;20235;-73
2023/10/14 04:40:39;;;;;;;10.57;5.20;;;;;;;13.51;58.54;92482.88;2072577;69;20141;-74
2023/10/14 04:46:13;;;;;;;9.90;5.63;;;;;;;13.40;59.61;92484.53;2072907;69;20136;-76
2023/10/14 04:48:39;;;;;;;10.27;5.70;;;;;;;13.51;59.47;92491.38;2070036;69;20179;-74
2023/10/14 04:51:08;;;;;;;11.98;5.72;;;;;;;13.58;59.91;92486.75;2069639;69;20121;-78
2023/10/14 04:53:34;;;;;;;10.65;5.60;;;;;;;13.67;58.85;92485.75;2069587;69;20538;-73
2023/10/14 04:59:19;;;;;;;11.07;5.25;;;;;;;13.67;55.99;92472.34;2057781;69;20510;-75
2023/10/14 05:01:48;;;;;;;9.82;5.38;;;;;;;13.82;55.47;92472.97;2058164;69;20146;-75
2023/10/14 05:04:13;;;;;;;9.40;5.05;;;;;;;13.80;55.08;92472.91;2063010;69;20647;-74
2023/10/14 05:06:42;;;;;;;10.20;5.07;;;;;;;13.92;55.00;92479.09;2072565;69;20166;-75
2023/10/14 05:09:25;;;;;;;13.40;5.15;;;;;;;13.95;55.81;92487.03;2069457;69;20223;-74
2023/10/14 05:11:50;;;;;;;10.95;5.20;;;;;;;13.85;55.96;92469.59;2072405;69;20155;-75
2023/10/14 05:14:16;;;;;;;10.25;5.25;;;;;;;13.78;55.22;92473.50;2072449;69;20566;-76
2023/10/14 05:19:25;;;;;;;8.52;4.88;;;;;;;13.74;54.92;92478.97;2072510;69;20164;-74
2023/10/14 05:22:13;;;;;;;12.32;5.65;;;;;;;13.60;55.37;92464.94;2072465;69;20185;-75
2023/10/14 05:24:45;;;;;;;11.23;5.00;;;;;;;13.64;55.49;92453.81;2072655;69;20172;-73
2023/10/14 05:27:11;;;;;;;11.15;5.40;;;;;;;13.60;55.81;92462.09;2072579;69;20231;-75
2023/10/14 05:29:37;;;;;;;7.18;4.60;;;;;;;13.68;56.25;92464.56;2072146;69;20160;-74
2023/10/14 05:32:15;;;;;;;7.15;4.97;;;;;;;13.63;56.32;92471.41;2072449;69;20496;-74
2023/10/14 05:34:43;;;;;;;11.23;5.13;;;;;;;13.62;55.58;92469.97;2069101;69;20511;-76
2023/10/14 05:37:11;;;;;;;14.85;5.57;;;;;;;13.58;56.25;92478.97;2072739;69;20218;-73
2023/10/14 05:39:40;;;;;;;12.50;5.20;;;;;;;13.57;56.16;92483.19;2069170;69;20168;-73
2023/10/14 05:42:17;;;;;;;10.27;5.80;;;;;;;13.61;55.94;92479.81;2068969;69;20133;-73
2023/10/14 05:44:47;;;;;;;13.07;5.22;;;;;;;13.59;57.05;92488.94;2069198;69;20140;-74
2023/10/14 05:47:18;;;;;;;14.93;5.32;;;;;;;13.57;57.27;92485.28;2072280;69;20656;-73
2023/10/14 05:49:44;;;;;;;11.45;5.60;;;;;;;13.50;56.67;92484.25;2072493;69;20214;-74
2023/10/14 05:52:13;;;;;;;10.90;5.50;;;;;;;13.18;58.70;92487.00;2072583;69;20152;-73
2023/10/14 05:54:40;;;;;;;11.98;5.43;;;;;;;13.41;57.19;92491.63;2068511;69;20203;-73
2023/10/14 05:57:08;;;;;;;10.55;5.10;;;;;;;13.36;57.30;92489.25;2072191;69;20235;-74
2023/10/14 05:59:36;;;;;;;9.07;5.30;;;;;;;13.46;57.44;92493.28;2072431;69;20148;-74
2023/10/14 06:02:09;;;;;;;9.93;5.68;;;;;;;13.56;57.18;92493.03;2069048;69;20620;-75
2023/10/14 06:04:41;;;;;;;13.38;5.60;;;;;;;13.44;57.49;92486.81;2069258;69;20168;-77
2023/10/14 06:07:12;;;;;;;15.32;5.43;;;;;;;13.33;57.50;92494.09;2072257;69;20164;-74
2023/10/14 06:09:45;;;;;;;10.15;5.60;;;;;;;13.31;57.00;92491.16;2072523;69;20179;-74
2023/10/14 06:12:16;;;;;;;10.82;5.90;;;;;;;13.49;56.63;92496.94;2072466;69;20207;-75
2023/10/14 06:14:43;;;;;;;11.07;5.68;;;;;;;13.50;56.02;92506.16;2072470;69;20150;-74
2023/10/14 06:17:09;;;;;;;11.95;5.30;;;;;;;13.58;55.28;92500.88;2072459;69;20542;-75
2023/10/14 06:19:38;;;;;;;10.93;5.15;;;;;;;13.60;55.41;92500.97;2069507;69;20194;-75
2023/10/14 06:22:07;;;;;;;14.55;6.50;;;;;;;13.62;56.03;92512.38;2072271;69;20140;-75
2023/10/14 06:24:34;;;;;;;12.05;5.88;;;;;;;13.43;57.04;92513.63;2069292;69;20157;-76
2023/10/14 06:27:09;;;;;;;10.18;5.43;;;;;;;13.45;57.23;92511.63;2072264;69;20147;-75
2023/10/14 06:29:37;;;;;;;9.88;5.10;;;;;;;13.53;57.15;92513.38;2069463;69;20140;-74
2023/10/14 06:32:03;;;;;;;8.30;4.80;;;;;;;13.55;56.79;92508.53;2072472;69;20152;-74
2023/10/14 06:34:34;;;;;;;17.20;5.47;;;;;;;13.67;56.16;92517.59;2072656;69;20147;-73
2023/10/14 06:37:02;;;;;;;9.02;5.32;;;;;;;13.47;55.31;92523.03;2072233;69;20138;-74
2023/10/14 06:39:31;;;;;;;10.38;4.72;;;;;;;13.55;55.01;92510.63;2072176;69;20656;-74
2023/10/14 06:41:58;;;;;;;10.63;4.80;;;;;;;13.61;54.29;92505.28;2072610;69;20695;-74
2023/10/14 06:44:28;;;;;;;11.30;5.53;;;;;;;13.63;55.31;92508.91;2072274;69;20227;-74
2023/10/14 06:46:54;;;;;;;11.95;4.70;;;;;;;13.76;55.71;92509.47;2072410;69;20155;-75
2023/10/14 06:49:22;;;;;;;11.07;5.28;;;;;;;13.88;55.72;92501.53;2072293;69;20151;-76
2023/10/14 06:51:51;;;;;;;9.80;4.85;;;;;;;14.07;54.61;92503.84;2072342;69;20131;-77
2023/10/14 06:54:25;;;;;;;9.80;5.93;;;;;;;13.90;53.57;92502.38;2072344;69;20247;-74
2023/10/14 06:56:53;;;;;;;12.48;5.63;;;;;;;14.07;52.90;92500.28;2066071;69;20222;-77
2023/10/14 06:59:27;;;;;;;10.63;5.20;;;;;;;14.28;52.34;92501.91;2068878;69;20150;-74
2023/10/14 07:01:53;;;;;;;10.15;5.07;;;;;;;14.27;52.07;92506.09;2072147;69;20512;-76
2023/10/14 07:04:21;;;;;;;8.95;5.50;;;;;;;14.49;51.41;92502.16;2072186;69;20170;-77
2023/10/14 07:06:49;;;;;;;7.95;4.80;;;;;;;14.46;52.22;92497.75;2072339;69;20619;-76
2023/10/14 07:09:17;;;;;;;8.55;5.13;;;;;;;14.40;52.54;92489.00;2072347;69;20155;-75
2023/10/14 07:11:45;;;;;;;7.40;4.80;;;;;;;14.52;52.64;92488.81;2068874;69;20144;-77
2023/10/14 07:14:11;;;;;;;12.15;5.07;;;;;;;14.54;52.28;92494.56;2072077;69;20152;-74
2023/10/14 07:16:37;;;;;;;10.02;5.22;;;;;;;14.44;52.09;92494.13;2072337;69;20170;-75
2023/10/14 07:19:02;;;;;;;11.02;5.78;;;;;;;14.48;51.67;92495.06;2068750;69;20144;-73
2023/10/14 07:21:29;;;;;;;10.02;5.45;;;;;;;14.28;52.62;92496.22;2072124;69;20148;-76
2023/10/14 07:24:05;;;;;;;7.95;5.07;;;;;;;14.32;52.85;92491.47;2072398;69;20159;-76
2023/10/14 07:26:36;;;;;;;9.68;5.38;;;;;;;14.51;52.96;92503.63;2072330;69;20144;-74
2023/10/14 07:29:03;;;;;;;7.50;4.85;;;;;;;14.48;53.92;92508.47;2071957;69;20148;-75
2023/10/14 07:31:31;;;;;;;11.18;4.75;;;;;;;14.71;55.50;92504.50;2068851;69;20242;-75
2023/10/14 07:34:02;;;;;;;8.73;5.18;;;;;;;15.01;54.53;92510.69;2072299;69;20175;-76
2023/10/14 07:36:29;;;;;;;10.00;5.30;;;;;;;15.17;53.86;92511.38;2072227;69;20136;-76
2023/10/14 07:39:27;;;;;;;11.93;6.68;;;;;;;15.00;52.84;92507.13;2072182;69;20651;-75
2023/10/14 07:41:52;;;;;;;17.20;6.47;;;;;;;15.05;53.17;92505.19;2072200;69;20129;-75
2023/10/14 07:44:22;;;;;;;32.45;17.40;;;;;;;15.17;52.54;92490.81;2072185;69;20168;-74
2023/10/14 07:46:49;;;;;;;25.13;14.15;;;;;;;15.28;52.26;92491.94;2072139;69;20144;-74
2023/10/14 07:49:15;;;;;;;61.97;37.22;;;;;;;15.52;52.06;92490.06;2072033;69;20159;-74
2023/10/14 07:51:42;;;;;;;70.38;47.75;;;;;;;15.31;53.34;92479.31;2072361;69;20137;-75
2023/10/14 07:54:12;;;;;;;13.20;7.75;;;;;;;14.95;53.36;92482.13;2072037;69;20164;-78
2023/10/14 07:56:39;;;;;;;14.00;7.10;;;;;;;15.00;53.58;92489.41;2072076;69;20144;-75
2023/10/14 07:59:04;;;;;;;13.10;6.15;;;;;;;15.40;51.98;92492.44;2072077;69;20148;-73
2023/10/14 08:01:30;;;;;;;10.50;6.13;;;;;;;15.64;52.45;92490.56;2072114;69;20492;-73
2023/10/14 08:03:58;;;;;;;14.73;6.18;;;;;;;15.90;51.46;92485.16;2072217;69;20144;-73
2023/10/14 08:06:25;;;;;;;12.55;7.10;;;;;;;15.83;51.75;92488.44;2065661;69;20172;-73
2023/10/14 08:08:53;;;;;;;15.02;6.53;;;;;;;15.83;53.19;92488.44;2072132;69;20599;-74
2023/10/14 08:11:21;;;;;;;15.98;6.68;;;;;;;15.99;53.01;92486.94;2071966;69;20129;-73
2023/10/14 08:13:50;;;;;;;14.95;7.10;;;;;;;16.04;53.83;92472.88;2072010;69;20247;-74
2023/10/14 08:16:15;;;;;;;16.77;6.32;;;;;;;16.05;52.48;92477.91;2072200;69;20144;-75
2023/10/14 08:18:41;;;;;;;14.30;6.30;;;;;;;15.85;54.81;92482.81;2072047;69;20186;-77
2023/10/14 08:21:09;;;;;;;14.13;6.68;;;;;;;15.44;54.84;92486.88;2068865;69;20675;-75
2023/10/14 08:23:35;;;;;;;12.45;6.88;;;;;;;15.95;54.21;92488.88;2071830;69;20538;-76
2023/10/14 08:26:02;;;;;;;17.20;7.85;;;;;;;16.05;54.84;92486.44;2072157;69;20159;-75
2023/10/14 08:28:28;;;;;;;19.42;9.10;;;;;;;16.24;54.18;92482.13;2072027;69;20235;-75
2023/10/14 08:30:57;;;;;;;14.57;7.93;;;;;;;16.44;52.51;92477.19;2072079;69;20147;-77
2023/10/14 08:33:24;;;;;;;12.90;6.75;;;;;;;16.52;52.24;92474.63;2072166;69;20140;-74
2023/10/14 08:35:51;;;;;;;12.27;6.38;;;;;;;16.39;52.96;92477.69;2072080;69;20159;-75
2023/10/14 08:38:22;;;;;;;11.38;6.63;;;;;;;16.74;53.07;92479.66;2068783;69;20175;-73
2023/10/14 08:40:52;;;;;;;10.52;5.80;;;;;;;16.69;53.77;92472.38;2072541;69;20164;-75
2023/10/14 08:43:22;;;;;;;9.73;5.88;;;;;;;16.73;51.47;92473.25;2072293;69;20251;-74
2023/10/14 08:45:49;;;;;;;12.23;6.68;;;;;;;16.52;51.94;92471.06;2069144;69;20175;-74
2023/10/14 08:48:19;;;;;;;14.55;5.78;;;;;;;16.43;51.35;92461.53;2072507;69;20148;-75
2023/10/14 08:50:47;;;;;;;15.48;6.15;;;;;;;16.51;51.55;92478.13;2072752;69;20293;-74
2023/10/14 08:53:13;;;;;;;12.45;6.38;;;;;;;16.81;53.27;92469.22;2072494;69;20611;-74
2023/10/14 08:55:40;;;;;;;12.30;6.60;;;;;;;17.00;54.53;92472.03;2072451;69;20151;-76
2023/10/14 08:58:12;;;;;;;8.73;5.30;;;;;;;17.22;53.56;92466.34;2072451;69;20144;-77
2023/10/14 09:00:38;;;;;;;24.83;13.80;;;;;;;17.30;52.21;92471.56;2072642;69;20168;-78
2023/10/14 09:03:07;;;;;;;16.00;7.10;;;;;;;17.00;53.59;92468.47;2072389;69;20228;-75
2023/10/14 09:05:40;;;;;;;19.63;10.15;;;;;;;17.44;52.03;92480.56;2072593;69;20147;-75
2023/10/14 09:08:19;;;;;;;20.05;12.15;;;;;;;17.74;53.34;92483.66;2072434;69;20146;-75
2023/10/14 09:10:45;;;;;;;19.25;8.23;;;;;;;17.67;52.81;92487.69;2072684;69;20673;-73
2023/10/14 09:13:19;;;;;;;17.02;9.65;;;;;;;17.66;50.59;92482.66;2072436;69;20600;-74
2023/10/14 09:15:44;;;;;;;27.45;13.30;;;;;;;17.71;51.21;92478.53;2069203;69;20148;-73
2023/10/14 09:18:19;;;;;;;18.40;10.20;;;;;;;17.87;51.75;92470.53;2069127;69;20163;-74
2023/10/14 09:20:56;;;;;;;12.15;7.57;;;;;;;18.29;50.73;92470.34;2072509;69;20227;-74
2023/10/14 09:23:27;;;;;;;11.07;7.32;;;;;;;18.21;50.49;92465.13;2072346;69;20155;-76
2023/10/14 09:26:01;;;;;;;11.60;7.45;;;;;;;18.64;50.81;92466.31;2072377;69;20283;-75
2023/10/14 09:28:29;;;;;;;13.50;7.63;;;;;;;18.63;51.26;92461.28;2072304;69;20202;-74
2023/10/14 09:30:57;;;;;;;14.02;8.05;;;;;;;18.98;50.44;92463.69;2072472;69;20677;-73
2023/10/14 09:33:34;;;;;;;17.30;7.32;;;;;;;19.22;48.50;92465.69;2068907;69;20237;-74
2023/10/14 09:36:04;;;;;;;10.75;6.78;;;;;;;19.16;47.46;92468.41;2072330;69;20137;-74
2023/10/14 09:38:32;;;;;;;13.68;6.60;;;;;;;18.65;46.75;92467.06;2072410;69;20148;-73
2023/10/14 09:41:02;;;;;;;12.60;7.22;;;;;;;18.57;47.73;92469.69;2072597;69;20167;-73
2023/10/14 09:43:29;;;;;;;10.07;6.60;;;;;;;18.93;47.31;92455.69;2072242;69;20584;-73
2023/10/14 09:45:56;;;;;;;10.45;6.47;;;;;;;19.14;46.89;92456.94;2072162;69;20217;-74
2023/10/14 09:48:23;;;;;;;11.70;6.88;;;;;;;19.12;47.12;92460.47;2072434;69;20565;-73
2023/10/14 09:50:51;;;;;;;15.40;7.57;;;;;;;19.33;46.40;92453.13;2068875;69;20151;-73
2023/10/14 09:53:19;;;;;;;14.70;6.82;;;;;;;19.62;44.94;92465.28;2069133;69;20235;-76
2023/10/14 09:55:46;;;;;;;16.17;6.50;;;;;;;19.87;44.75;92469.41;2071986;69;20132;-73
2023/10/14 09:58:18;;;;;;;11.32;5.72;;;;;;;19.60;44.63;92437.38;2072240;69;20214;-74
2023/10/14 10:00:45;;;;;;;13.13;6.05;;;;;;;20.25;44.91;92464.53;2069086;69;20144;-75
2023/10/14 10:03:12;;;;;;;12.48;6.50;;;;;;;20.45;43.94;92463.50;2072353;69;20306;-74
2023/10/14 10:05:47;;;;;;;11.75;6.38;;;;;;;20.35;43.58;92449.72;2072347;69;20145;-74
2023/10/14 10:08:42;;;;;;;12.23;6.15;;;;;;;20.43;43.29;92452.75;2072349;69;20154;-75
2023/10/14 10:11:12;;;;;;;13.27;5.90;;;;;;;21.73;43.72;92462.28;2069467;69;20152;-76
2023/10/14 10:13:39;;;;;;;10.10;6.03;;;;;;;21.73;41.54;92454.41;2072179;69;20141;-76
2023/10/14 10:16:09;;;;;;;11.00;5.40;;;;;;;21.66;40.48;92455.72;2069244;69;20152;-75
2023/10/14 10:18:58;;;;;;;12.57;6.10;;;;;;;21.29;41.96;92452.22;2069120;69;20118;-75
2023/10/14 10:21:32;;;;;;;12.48;7.15;;;;;;;21.21;42.69;92451.34;2072343;69;20208;-78
2023/10/14 10:24:25;;;;;;;11.20;5.50;;;;;;;21.87;41.18;92451.03;2072349;69;20164;-76
2023/10/14 10:27:08;;;;;;;10.60;5.47;;;;;;;22.57;39.95;92450.56;2071614;69;20152;-77
2023/10/14 10:29:51;;;;;;;14.85;5.80;;;;;;;22.46;41.65;92445.41;2072086;69;20124;-78
2023/10/14 10:32:21;;;;;;;9.70;6.13;;;;;;;21.12;43.77;92447.66;2072247;69;20172;-77
2023/10/14 10:35:05;;;;;;;12.45;6.68;;;;;;;21.26;43.48;92450.03;2072250;69;20182;-76
2023/10/14 10:37:53;;;;;;;10.20;6.38;;;;;;;21.57;43.00;92442.69;2072257;69;20235;-77
2023/10/14 10:40:26;;;;;;;10.85;6.80;;;;;;;21.75;42.92;92436.50;2072190;69;20145;-76
2023/10/14 10:42:53;;;;;;;10.93;6.50;;;;;;;21.55;42.86;92449.09;2072268;69;20235;-74
2023/10/14 10:45:24;;;;;;;9.45;5.97;;;;;;;21.11;44.21;92445.47;2072306;69;20195;-75
2023/10/14 10:47:54;;;;;;;13.40;6.93;;;;;;;21.18;43.66;92456.34;2072156;69;20630;-78
2023/10/14 10:50:37;;;;;;;13.57;6.80;;;;;;;20.62;44.76;92447.41;2068787;69;20596;-77
2023/10/14 10:53:10;;;;;;;15.65;7.00;;;;;;;20.14;44.88;92445.00;2068919;69;20155;-76
2023/10/14 10:55:46;;;;;;;9.35;6.20;;;;;;;20.38;43.92;92433.34;2072161;69;20501;-76
2023/10/14 10:58:13;;;;;;;10.68;6.50;;;;;;;20.71;43.85;92435.47;2072099;69;20147;-76
2023/10/14 11:00:43;;;;;;;11.02;6.40;;;;;;;20.95;47.23;92426.59;2072296;69;20286;-76
2023/10/14 11:03:14;;;;;;;12.40;6.35;;;;;;;21.11;48.01;92425.44;2072728;69;20200;-78
2023/10/14 11:05:44;;;;;;;10.93;6.13;;;;;;;21.20;47.95;92427.00;2072285;69;20634;-74
2023/10/14 11:08:10;;;;;;;12.32;6.78;;;;;;;21.68;46.50;92414.94;2072225;69;20160;-76
2023/10/14 11:10:42;;;;;;;8.00;5.72;;;;;;;22.29;43.37;92416.53;2072377;69;20148;-76
2023/10/14 11:13:13;;;;;;;13.10;6.07;;;;;;;23.17;41.96;92417.50;2068549;69;20175;-75
2023/10/14 11:15:48;;;;;;;9.63;5.70;;;;;;;24.72;40.19;92423.63;2069009;69;20133;-77
2023/10/14 11:18:14;;;;;;;10.32;6.80;;;;;;;25.86;38.20;92420.97;2065940;69;20212;-75
2023/10/14 11:20:45;;;;;;;12.52;6.15;;;;;;;28.07;34.83;92423.56;2069103;69;20168;-74
2023/10/14 11:23:12;;;;;;;10.98;5.57;;;;;;;28.58;35.14;92415.13;2068934;69;20148;-76
2023/10/14 11:25:46;;;;;;;8.55;5.97;;;;;;;29.71;33.16;92417.31;2068372;69;20164;-75
2023/10/14 11:28:14;;;;;;;11.73;6.07;;;;;;;31.96;30.18;92422.41;2068829;69;20168;-76
2023/10/14 11:30:42;;;;;;;8.60;5.30;;;;;;;33.28;28.23;92427.00;2069097;69;20148;-75
2023/10/14 11:33:13;;;;;;;11.40;5.80;;;;;;;31.62;28.40;92404.28;2068332;69;20245;-76
2023/10/14 11:35:39;;;;;;;10.90;5.70;;;;;;;31.53;28.68;92408.13;2068595;69;20203;-75
2023/10/14 11:38:13;;;;;;;11.70;5.85;;;;;;;32.02;28.77;92407.00;2068573;69;20535;-77
2023/10/14 11:40:48;;;;;;;9.50;5.15;;;;;;;34.69;27.99;92404.34;2068145;69;20197;-76
2023/10/14 11:43:16;;;;;;;8.20;4.53;;;;;;;35.06;27.39;92398.66;2068152;69;20147;-75
2023/10/14 11:45:44;;;;;;;9.25;5.38;;;;;;;36.93;25.09;92394.94;2068881;69;20156;-76
2023/10/14 11:48:25;;;;;;;8.88;4.90;;;;;;;36.33;25.65;92391.53;2068775;69;20159;-77
2023/10/14 11:51:01;;;;;;;10.45;4.53;;;;;;;36.06;25.34;92388.28;2068736;69;20176;-77
2023/10/14 11:53:31;;;;;;;7.70;4.70;;;;;;;38.19;23.51;92385.50;2068209;69;20230;-77
2023/10/14 11:55:59;;;;;;;8.27;5.00;;;;;;;37.43;24.01;92383.16;2065687;69;20152;-76
2023/10/14 11:58:36;;;;;;;7.25;4.50;;;;;;;36.97;24.20;92383.03;2068564;69;20237;-77
2023/10/14 12:01:05;;;;;;;6.65;4.40;;;;;;;38.30;24.12;92384.22;2068424;69;20148;-77
2023/10/14 12:03:32;;;;;;;8.85;4.63;;;;;;;39.31;21.98;92386.47;2068364;69;20232;-77
2023/10/14 12:05:59;;;;;;;7.28;4.95;;;;;;;39.34;21.79;92378.22;2068368;69;20746;-77
2023/10/14 12:08:27;;;;;;;7.68;4.57;;;;;;;40.07;21.83;92365.38;2068296;69;20144;-76
2023/10/14 12:10:56;;;;;;;7.47;4.60;;;;;;;36.04;23.82;92359.78;2068865;69;20148;-76
2023/10/14 12:13:24;;;;;;;8.27;4.50;;;;;;;37.80;22.62;92352.81;2072038;69;20231;-76
2023/10/14 12:15:50;;;;;;;9.50;4.40;;;;;;;36.32;24.34;92346.16;2072640;69;20116;-74
2023/10/14 12:18:16;;;;;;;8.48;4.38;;;;;;;40.29;19.94;92353.88;2072580;69;20512;-75
2023/10/14 12:20:48;;;;;;;8.20;4.35;;;;;;;39.29;22.00;92347.59;2072312;69;20596;-75
2023/10/14 12:23:19;;;;;;;7.75;4.57;;;;;;;39.39;21.49;92353.63;2072402;69;20156;-76